createdAt,value
2022-11-21T00:01:48.980Z,20.48
2022-11-21T00:04:17.558Z,24.85
2022-11-21T00:06:48.640Z,24.83
2022-11-21T00:09:17.151Z,31.98
2022-11-21T00:11:45.682Z,26.83
2022-11-21T00:14:14.263Z,28.77
2022-11-21T00:16:42.802Z,23.88
2022-11-21T00:19:12.753Z,28.08
2022-11-21T00:21:41.062Z,29.75
2022-11-21T00:24:12.300Z,22.20
2022-11-21T00:26:40.827Z,27.23
2022-11-21T00:29:09.433Z,28.65
2022-11-21T00:31:38.129Z,28.73
2022-11-21T00:34:06.770Z,26.95
2022-11-21T00:36:36.783Z,26.45
2022-11-21T00:39:05.830Z,28.00
2022-11-21T00:41:34.443Z,25.83
2022-11-21T00:44:02.738Z,30.25
2022-11-21T00:46:31.256Z,34.42
2022-11-21T00:48:59.904Z,33.22
2022-11-21T00:51:28.649Z,20.08
2022-11-21T00:53:58.660Z,25.35
2022-11-21T00:56:27.449Z,25.85
2022-11-21T00:58:55.999Z,24.38
2022-11-21T01:01:24.587Z,21.25
2022-11-21T01:03:53.187Z,20.60
2022-11-21T01:06:21.801Z,22.13
2022-11-21T01:08:50.165Z,29.75
2022-11-21T01:11:22.580Z,26.38
2022-11-21T01:13:51.690Z,28.48
2022-11-21T01:16:22.458Z,20.80
2022-11-21T01:18:51.410Z,26.52
2022-11-21T01:21:23.452Z,33.63
2022-11-21T01:23:52.610Z,33.40
2022-11-21T01:26:25.023Z,33.92
2022-11-21T01:28:53.807Z,30.70
2022-11-21T01:31:23.893Z,36.83
2022-11-21T01:33:53.159Z,30.83
2022-11-21T01:36:23.217Z,27.73
2022-11-21T01:38:56.448Z,26.98
2022-11-21T01:41:30.380Z,33.72
2022-11-21T01:43:59.239Z,25.27
2022-11-21T01:46:28.541Z,31.95
2022-11-21T01:49:01.767Z,27.42
2022-11-21T01:51:35.790Z,31.67
2022-11-21T01:54:09.835Z,22.90
2022-11-21T01:56:45.980Z,27.55
2022-11-21T01:59:19.387Z,23.63
2022-11-21T02:01:51.684Z,19.02
2022-11-21T02:04:21.887Z,19.35
2022-11-21T02:06:50.904Z,20.13
2022-11-21T02:09:20.630Z,22.42
2022-11-21T02:11:53.990Z,21.35
2022-11-21T02:14:22.410Z,24.60
2022-11-21T02:16:52.251Z,21.65
2022-11-21T02:19:29.613Z,19.08
2022-11-21T02:22:05.402Z,19.45
2022-11-21T02:24:41.376Z,20.90
2022-11-21T02:27:11.993Z,21.52
2022-11-21T02:29:41.652Z,24.48
2022-11-21T02:32:10.268Z,20.23
2022-11-21T02:34:38.792Z,17.10
2022-11-21T02:37:07.790Z,21.40
2022-11-21T02:39:39.474Z,28.42
2022-11-21T02:42:16.701Z,23.92
2022-11-21T02:44:53.751Z,28.45
2022-11-21T02:47:24.091Z,25.17
2022-11-21T02:49:59.463Z,25.40
2022-11-21T02:52:28.032Z,27.67
2022-11-21T02:54:56.710Z,34.63
2022-11-21T02:57:26.709Z,30.85
2022-11-21T02:59:55.628Z,23.13
2022-11-21T03:02:24.053Z,31.48
2022-11-21T03:04:53.178Z,27.38
2022-11-21T03:07:22.091Z,35.22
2022-11-21T03:09:50.709Z,31.15
2022-11-21T03:12:19.138Z,26.05
2022-11-21T03:14:49.093Z,29.17
2022-11-21T03:17:18.186Z,33.45
2022-11-21T03:19:46.528Z,38.50
2022-11-21T03:22:17.410Z,36.10
2022-11-21T03:24:45.752Z,39.70
2022-11-21T03:27:15.319Z,37.85
2022-11-21T03:29:43.931Z,35.95
2022-11-21T03:32:14.137Z,39.60
2022-11-21T03:34:42.783Z,47.40
2022-11-21T03:37:11.442Z,40.80
2022-11-21T03:39:40.960Z,42.63
2022-11-21T03:42:09.368Z,49.15
2022-11-21T03:44:38.389Z,41.83
2022-11-21T03:47:08.006Z,40.85
2022-11-21T03:49:37.744Z,39.33
2022-11-21T03:52:06.443Z,41.28
2022-11-21T03:54:34.862Z,44.88
2022-11-21T03:57:03.350Z,42.35
2022-11-21T03:59:31.853Z,44.20
2022-11-21T04:02:02.288Z,43.08
2022-11-21T04:04:30.951Z,40.85
2022-11-21T04:07:01.285Z,39.58
2022-11-21T04:09:30.166Z,43.85
2022-11-21T04:11:58.871Z,41.13
2022-11-21T04:14:27.601Z,41.38
2022-11-21T04:16:56.440Z,39.25
2022-11-21T04:19:24.850Z,40.95
2022-11-21T04:21:53.207Z,52.42
2022-11-21T04:24:23.310Z,37.30
2022-11-21T04:26:51.847Z,57.85
2022-11-21T04:29:20.478Z,49.75
2022-11-21T04:31:48.896Z,46.17
2022-11-21T04:34:17.696Z,44.45
2022-11-21T04:36:46.341Z,38.63
2022-11-21T04:39:14.705Z,46.10
2022-11-21T04:41:44.769Z,41.28
2022-11-21T04:44:13.293Z,49.22
2022-11-21T04:46:41.824Z,44.78
2022-11-21T04:49:10.124Z,52.15
2022-11-21T04:51:38.556Z,49.50
2022-11-21T04:54:08.440Z,52.92
2022-11-21T04:56:38.727Z,42.55
2022-11-21T04:59:09.193Z,40.15
2022-11-21T05:01:39.537Z,41.55
2022-11-21T05:04:07.887Z,38.97
2022-11-21T05:06:36.583Z,38.08
2022-11-21T05:09:05.234Z,38.78
2022-11-21T05:11:51.121Z,39.75
2022-11-21T05:14:20.990Z,35.35
2022-11-21T05:16:49.651Z,19.58
2022-11-21T05:19:18.016Z,27.58
2022-11-21T05:21:46.736Z,18.00
2022-11-21T05:24:15.830Z,17.48
2022-11-21T05:26:44.528Z,15.77
2022-11-21T05:29:13.109Z,16.92
2022-11-21T05:31:42.966Z,21.98
2022-11-21T05:34:11.522Z,21.02
2022-11-21T05:36:40.085Z,21.15
2022-11-21T05:39:08.570Z,17.38
2022-11-21T05:41:37.731Z,15.95
2022-11-21T05:44:05.362Z,24.98
2022-11-21T05:46:34.066Z,33.90
2022-11-21T05:49:04.658Z,27.35
2022-11-21T05:51:33.222Z,30.75
2022-11-21T05:54:01.781Z,39.17
2022-11-21T05:56:30.310Z,28.13
2022-11-21T05:58:59.206Z,31.67
2022-11-21T06:01:41.689Z,35.63
2022-11-21T06:04:12.211Z,36.78
2022-11-21T06:06:41.946Z,29.52
2022-11-21T06:09:10.489Z,35.20
2022-11-21T06:11:39.342Z,41.80
2022-11-21T06:14:08.071Z,33.67
2022-11-21T06:16:36.818Z,29.00
2022-11-21T06:19:05.487Z,26.10
2022-11-21T06:21:37.437Z,30.67
2022-11-21T06:24:06.678Z,19.92
2022-11-21T06:26:35.451Z,23.67
2022-11-21T06:29:06.849Z,24.92
2022-11-21T06:31:35.546Z,21.20
2022-11-21T06:34:04.031Z,22.17
2022-11-21T06:36:32.410Z,22.77
2022-11-21T06:39:03.472Z,25.38
2022-11-21T06:41:32.152Z,17.90
2022-11-21T06:44:02.192Z,21.52
2022-11-21T06:46:31.129Z,16.65
2022-11-21T06:48:59.711Z,15.23
2022-11-21T06:51:28.230Z,25.17
2022-11-21T06:53:58.443Z,29.27
2022-11-21T06:56:30.888Z,24.38
2022-11-21T06:58:59.858Z,25.73
2022-11-21T07:01:28.493Z,27.05
2022-11-21T07:03:57.960Z,28.98
2022-11-21T07:06:27.760Z,35.65
2022-11-21T07:09:25.547Z,37.47
2022-11-21T07:11:47.081Z,31.63
2022-11-21T07:14:14.591Z,28.70
2022-11-21T07:16:43.220Z,32.45
2022-11-21T07:19:12.034Z,28.20
2022-11-21T07:21:40.435Z,32.70
2022-11-21T07:24:09.486Z,31.60
2022-11-21T07:26:39.065Z,29.02
2022-11-21T07:29:08.881Z,33.08
2022-11-21T07:31:37.748Z,30.70
2022-11-21T07:34:06.264Z,22.33
2022-11-21T07:36:36.728Z,23.42
2022-11-21T07:39:06.705Z,24.25
2022-11-21T07:41:36.898Z,24.70
2022-11-21T07:44:10.505Z,34.05
2022-11-21T07:46:39.318Z,24.08
2022-11-21T07:49:08.151Z,34.90
2022-11-21T07:51:38.596Z,37.75
2022-11-21T07:54:08.009Z,32.75
2022-11-21T07:56:39.194Z,34.70
2022-11-21T07:59:19.631Z,28.17
2022-11-21T08:01:57.292Z,34.22
2022-11-21T08:04:25.818Z,29.92
2022-11-21T08:06:54.911Z,34.45
2022-11-21T08:09:24.143Z,32.47
2022-11-21T08:11:52.874Z,31.80
2022-11-21T08:14:23.238Z,35.60
2022-11-21T08:16:53.956Z,36.10
2022-11-21T08:19:23.678Z,30.80
2022-11-21T08:21:54.586Z,33.40
2022-11-21T08:24:23.564Z,28.33
2022-11-21T08:26:52.641Z,29.55
2022-11-21T08:29:23.564Z,25.88
2022-11-21T08:31:52.306Z,35.58
2022-11-21T08:34:21.495Z,33.83
2022-11-21T08:36:50.954Z,32.65
2022-11-21T08:39:19.704Z,28.95
2022-11-21T08:42:04.523Z,28.95
2022-11-21T08:44:35.961Z,39.20
2022-11-21T08:47:05.376Z,27.90
2022-11-21T08:49:35.439Z,29.75
2022-11-21T08:52:04.019Z,34.83
2022-11-21T08:54:32.686Z,47.80
2022-11-21T08:57:01.544Z,39.55
2022-11-21T08:59:31.117Z,46.47
2022-11-21T09:02:01.962Z,41.35
2022-11-21T09:04:32.180Z,46.72
2022-11-21T09:07:02.327Z,39.40
2022-11-21T09:09:31.444Z,34.80
2022-11-21T09:12:00.173Z,38.67
2022-11-21T09:14:45.851Z,37.55
2022-11-21T09:17:34.121Z,42.90
2022-11-21T09:20:08.068Z,45.20
2022-11-21T09:22:40.836Z,40.63
2022-11-21T09:25:10.250Z,38.50
2022-11-21T09:27:41.242Z,33.95
2022-11-21T09:30:10.764Z,42.53
2022-11-21T09:32:40.914Z,38.53
2022-11-21T09:35:10.059Z,43.92
2022-11-21T09:37:39.165Z,36.45
2022-11-21T09:40:14.474Z,32.08
2022-11-21T09:43:02.143Z,27.95
2022-11-21T09:45:35.972Z,39.55
2022-11-21T09:48:14.086Z,32.83
2022-11-21T09:50:53.444Z,30.02
2022-11-21T09:53:28.582Z,33.40
2022-11-21T09:56:01.436Z,27.83
2022-11-21T09:58:41.765Z,11.88
2022-11-21T10:01:15.678Z,3.58
2022-11-21T10:03:50.083Z,3.85
2022-11-21T10:06:23.791Z,7.00
2022-11-21T10:09:03.943Z,2.50
2022-11-21T10:12:03.391Z,3.40
2022-11-21T10:15:14.852Z,7.28
2022-11-21T10:17:57.653Z,5.28
2022-11-21T10:20:46.002Z,2.50
2022-11-21T10:23:41.154Z,7.57
2022-11-21T10:26:18.884Z,5.50
2022-11-21T10:28:54.109Z,5.50
2022-11-21T10:31:23.207Z,4.75
2022-11-21T10:33:58.535Z,9.68
2022-11-21T10:36:37.796Z,7.43
2022-11-21T10:39:16.118Z,8.57
2022-11-21T10:41:52.851Z,4.97
2022-11-21T10:44:44.433Z,10.18
2022-11-21T10:47:27.790Z,6.38
2022-11-21T10:50:06.011Z,10.00
2022-11-21T10:52:44.831Z,8.13
2022-11-21T10:55:19.571Z,9.98
2022-11-21T10:57:58.632Z,11.68
2022-11-21T11:00:29.207Z,5.68
2022-11-21T11:03:05.933Z,8.48
2022-11-21T11:05:37.444Z,7.07
2022-11-21T11:08:12.667Z,9.30
2022-11-21T11:10:42.971Z,9.77
2022-11-21T11:13:50.469Z,13.45
2022-11-21T11:16:25.356Z,7.50
2022-11-21T11:19:02.281Z,9.98
2022-11-21T11:21:32.419Z,9.30
2022-11-21T11:24:26.410Z,10.23
2022-11-21T11:27:01.270Z,10.10
2022-11-21T11:29:32.453Z,9.75
2022-11-21T11:32:04.595Z,6.82
2022-11-21T11:34:40.974Z,9.02
2022-11-21T11:37:28.139Z,5.70
2022-11-21T11:40:12.605Z,9.90
2022-11-21T11:43:16.107Z,12.07
2022-11-21T11:46:43.192Z,12.18
2022-11-21T11:49:21.636Z,7.55
2022-11-21T11:51:56.311Z,14.18
2022-11-21T11:54:31.773Z,10.80
2022-11-21T11:57:01.747Z,8.90
2022-11-21T11:59:39.033Z,7.65
2022-11-21T12:02:19.255Z,9.57
2022-11-21T12:04:55.113Z,6.93
2022-11-21T12:10:22.808Z,5.30
2022-11-21T12:12:58.240Z,9.40
2022-11-21T12:15:49.112Z,11.45
2022-11-21T12:18:28.595Z,7.07
2022-11-21T12:21:04.554Z,7.28
2022-11-21T12:23:36.699Z,10.35
2022-11-21T12:26:23.622Z,9.82
2022-11-21T12:29:07.950Z,8.40
2022-11-21T12:31:48.893Z,9.38
2022-11-21T12:34:35.431Z,8.88
2022-11-21T12:37:15.601Z,14.73
2022-11-21T12:40:01.990Z,12.77
2022-11-21T12:42:51.973Z,8.98
2022-11-21T12:45:32.149Z,8.32
2022-11-21T12:48:32.845Z,9.18
2022-11-21T12:51:41.361Z,11.10
2022-11-21T12:54:33.554Z,11.68
2022-11-21T12:57:11.037Z,12.07
2022-11-21T12:59:50.014Z,13.07
2022-11-21T13:02:31.784Z,17.05
2022-11-21T13:05:03.200Z,17.63
2022-11-21T13:07:33.598Z,12.63
2022-11-21T13:10:06.254Z,17.35
2022-11-21T13:12:41.703Z,14.88
2022-11-21T13:15:24.667Z,16.73
2022-11-21T13:17:58.554Z,18.92
2022-11-21T13:20:32.876Z,16.85
2022-11-21T13:23:06.813Z,20.58
2022-11-21T13:25:47.932Z,15.85
2022-11-21T13:28:37.075Z,16.65
2022-11-21T13:31:29.666Z,19.60
2022-11-21T13:34:00.506Z,21.85
2022-11-21T13:36:40.520Z,21.10
2022-11-21T13:39:30.021Z,18.35
2022-11-21T13:42:24.993Z,9.65
2022-11-21T13:44:53.850Z,12.48
2022-11-21T13:47:56.233Z,11.40
2022-11-21T13:50:50.676Z,11.50
2022-11-21T13:53:57.558Z,14.15
2022-11-21T13:56:37.577Z,12.02
2022-11-21T13:59:24.997Z,10.60
2022-11-21T14:02:27.742Z,8.13
2022-11-21T14:05:17.618Z,13.10
2022-11-21T14:07:48.211Z,11.55
2022-11-21T14:10:33.842Z,13.82
2022-11-21T14:13:05.281Z,13.40
2022-11-21T14:15:49.132Z,6.53
2022-11-21T14:18:25.311Z,10.35
2022-11-21T14:20:58.354Z,7.93
2022-11-21T14:23:30.826Z,13.65
2022-11-21T14:26:06.665Z,10.93
2022-11-21T14:28:36.803Z,11.77
2022-11-21T14:31:07.984Z,10.05
2022-11-21T14:33:38.073Z,7.97
2022-11-21T14:36:10.667Z,11.63
2022-11-21T14:38:45.168Z,7.68
2022-11-21T14:41:32.884Z,17.67
2022-11-21T14:44:18.450Z,9.10
2022-11-21T14:46:48.355Z,8.57
2022-11-21T14:49:26.559Z,11.55
2022-11-21T14:52:04.387Z,9.52
2022-11-21T14:54:50.276Z,16.33
2022-11-21T14:57:31.831Z,12.18
2022-11-21T15:00:02.297Z,10.13
2022-11-21T15:02:34.402Z,17.08
2022-11-21T15:05:06.681Z,13.40
2022-11-21T15:07:42.425Z,9.95
2022-11-21T15:10:32.157Z,13.35
2022-11-21T15:13:05.490Z,10.80
2022-11-21T15:15:37.659Z,12.80
2022-11-21T15:18:26.863Z,8.90
2022-11-21T15:21:00.258Z,7.82
2022-11-21T15:23:31.884Z,12.30
2022-11-21T15:26:03.298Z,12.30
2022-11-21T15:28:32.755Z,12.57
2022-11-21T15:31:17.915Z,12.38
2022-11-21T15:34:19.652Z,19.23
2022-11-21T15:36:47.097Z,13.80
2022-11-21T15:39:23.528Z,9.20
2022-11-21T15:41:55.232Z,12.32
2022-11-21T15:44:25.695Z,12.45
2022-11-21T15:46:54.136Z,16.55
2022-11-21T15:49:32.845Z,12.48
2022-11-21T15:52:10.211Z,9.55
2022-11-21T15:54:39.167Z,10.27
2022-11-21T15:57:10.455Z,16.00
2022-11-21T15:59:39.134Z,9.88
2022-11-21T16:02:07.802Z,16.88
2022-11-21T16:04:36.351Z,13.63
2022-11-21T16:07:04.973Z,13.25
2022-11-21T16:09:34.643Z,14.70
2022-11-21T16:12:03.460Z,16.50
2022-11-21T16:14:33.601Z,15.18
2022-11-21T16:17:05.109Z,17.35
2022-11-21T16:19:33.624Z,16.33
2022-11-21T16:22:02.135Z,13.25
2022-11-21T16:24:30.535Z,15.57
2022-11-21T16:26:59.709Z,18.70
2022-11-21T16:29:28.402Z,10.23
2022-11-21T16:31:58.729Z,13.98
2022-11-21T16:34:28.248Z,14.55
2022-11-21T16:36:56.789Z,13.25
2022-11-21T16:39:25.319Z,12.20
2022-11-21T16:41:54.236Z,12.50
2022-11-21T16:44:22.599Z,14.40
2022-11-21T16:46:54.442Z,16.05
2022-11-21T16:49:24.962Z,15.80
2022-11-21T16:51:53.523Z,14.93
2022-11-21T16:54:22.398Z,14.25
2022-11-21T16:56:50.660Z,16.05
2022-11-21T16:59:19.120Z,17.98
2022-11-21T17:01:48.097Z,16.85
2022-11-21T17:04:18.419Z,24.55
2022-11-21T17:06:49.478Z,29.67
2022-11-21T17:09:18.530Z,26.83
2022-11-21T17:11:47.119Z,23.65
2022-11-21T17:14:15.751Z,16.85
2022-11-21T17:16:44.314Z,14.80
2022-11-21T17:19:15.398Z,16.90
2022-11-21T17:21:44.130Z,16.35
2022-11-21T17:24:15.866Z,17.83
2022-11-21T17:26:44.194Z,17.70
2022-11-21T17:29:12.824Z,14.77
2022-11-21T17:31:42.433Z,19.25
2022-11-21T17:34:11.219Z,16.63
2022-11-21T17:36:39.823Z,25.27
2022-11-21T17:39:08.343Z,21.52
2022-11-21T17:41:39.961Z,17.95
2022-11-21T17:44:08.482Z,15.07
2022-11-21T17:46:36.905Z,16.00
2022-11-21T17:49:05.721Z,15.38
2022-11-21T17:51:38.414Z,15.38
2022-11-21T17:54:08.595Z,17.80
2022-11-21T17:56:45.460Z,17.80
2022-11-21T17:59:16.314Z,16.30
2022-11-21T18:01:46.178Z,19.67
2022-11-21T18:04:17.782Z,14.75
2022-11-21T18:06:47.151Z,20.02
2022-11-21T18:09:16.787Z,13.55
2022-11-21T18:11:46.931Z,17.45
2022-11-21T18:14:15.862Z,11.10
2022-11-21T18:16:49.511Z,19.25
2022-11-21T18:19:22.605Z,18.45
2022-11-21T18:21:52.091Z,17.55
2022-11-21T18:24:20.711Z,17.80
2022-11-21T18:26:51.227Z,19.63
2022-11-21T18:29:36.184Z,25.67
2022-11-21T18:32:06.132Z,23.95
2022-11-21T18:34:34.749Z,26.75
2022-11-21T18:37:03.334Z,20.58
2022-11-21T18:39:32.343Z,23.27
2022-11-21T18:42:02.741Z,21.38
2022-11-21T18:44:31.448Z,18.17
2022-11-21T18:47:00.456Z,17.10
2022-11-21T18:49:29.003Z,21.38
2022-11-21T18:51:58.101Z,20.05
2022-11-21T18:54:26.589Z,15.43
2022-11-21T18:56:57.373Z,17.88
2022-11-21T18:59:27.869Z,22.80
2022-11-21T19:01:57.174Z,17.48
2022-11-21T19:04:26.609Z,13.57
2022-11-21T19:06:55.199Z,16.95
2022-11-21T19:09:28.032Z,13.25
2022-11-21T19:11:59.702Z,15.00
2022-11-21T19:14:30.156Z,13.38
2022-11-21T19:16:59.016Z,19.05
2022-11-21T19:19:34.703Z,16.55
2022-11-21T19:22:05.032Z,17.85
2022-11-21T19:24:36.632Z,15.82
2022-11-21T19:27:08.819Z,13.10
2022-11-21T19:29:39.078Z,19.92
2022-11-21T19:32:12.422Z,17.80
2022-11-21T19:34:56.242Z,20.58
2022-11-21T19:37:24.911Z,18.92
2022-11-21T19:39:53.413Z,18.30
2022-11-21T19:42:22.543Z,16.13
2022-11-21T19:44:53.561Z,15.98
2022-11-21T19:47:26.240Z,17.42
2022-11-21T19:49:56.843Z,17.40
2022-11-21T19:52:28.152Z,19.45
2022-11-21T19:55:02.001Z,22.77
2022-11-21T20:00:25.620Z,15.45
2022-11-21T20:02:54.230Z,13.43
2022-11-21T20:05:22.557Z,14.35
2022-11-21T20:07:50.945Z,13.02
2022-11-21T20:10:19.670Z,15.75
2022-11-21T20:12:48.123Z,12.13
2022-11-21T20:15:16.922Z,12.13
2022-11-21T20:17:50.840Z,9.40
2022-11-21T20:20:19.825Z,13.52
2022-11-21T20:22:48.336Z,11.98
2022-11-21T20:25:17.128Z,9.38
2022-11-21T20:27:45.692Z,11.23
2022-11-21T20:30:14.525Z,15.02
2022-11-21T20:32:43.152Z,15.02
2022-11-21T20:35:13.618Z,14.20
2022-11-21T20:37:47.335Z,11.02
2022-11-21T20:40:16.601Z,17.98
2022-11-21T20:42:45.077Z,16.50
2022-11-21T20:48:09.853Z,16.23
2022-11-21T20:51:42.251Z,22.13
2022-11-21T20:53:51.615Z,15.77
2022-11-21T20:56:22.032Z,17.38
2022-11-21T20:58:52.004Z,17.75
2022-11-21T21:01:24.282Z,20.88
2022-11-21T21:03:53.415Z,21.67
2022-11-21T21:06:26.579Z,14.65
2022-11-21T21:08:55.483Z,14.82
2022-11-21T21:14:13.935Z,19.85
2022-11-21T21:16:46.319Z,17.10
2022-11-21T21:19:15.052Z,16.30
2022-11-21T21:21:45.171Z,16.83
2022-11-21T21:24:14.505Z,19.50
2022-11-21T21:26:44.980Z,17.60
2022-11-21T21:29:15.294Z,15.65
2022-11-21T21:31:50.414Z,18.90
2022-11-21T21:34:19.363Z,7.07
2022-11-21T21:36:49.256Z,13.23
2022-11-21T21:39:18.005Z,16.40
2022-11-21T21:41:47.485Z,10.73
2022-11-21T21:44:17.074Z,14.80
2022-11-21T21:46:45.750Z,11.40
2022-11-21T21:49:14.799Z,10.98
2022-11-21T21:51:43.561Z,13.18
2022-11-21T21:54:19.886Z,10.15
2022-11-21T21:56:49.639Z,16.33
2022-11-21T21:59:20.056Z,13.30
2022-11-21T22:01:49.665Z,12.55
2022-11-21T22:04:18.362Z,9.45
2022-11-21T22:06:46.639Z,11.77
2022-11-21T22:09:15.202Z,12.90
2022-11-21T22:11:57.272Z,10.02
2022-11-21T22:14:25.791Z,13.95
2022-11-21T22:16:54.989Z,12.75
2022-11-21T22:19:23.788Z,14.18
2022-11-21T22:21:54.530Z,11.27
2022-11-21T22:24:25.834Z,13.57
2022-11-21T22:26:56.493Z,17.42
2022-11-21T22:29:26.599Z,18.30
2022-11-21T22:31:54.982Z,22.33
2022-11-21T22:34:23.980Z,17.92
2022-11-21T22:36:52.619Z,14.43
2022-11-21T22:39:21.322Z,13.68
2022-11-21T22:41:50.045Z,13.95
2022-11-21T22:44:22.864Z,11.98
2022-11-21T22:46:51.321Z,12.68
2022-11-21T22:49:20.580Z,13.65
2022-11-21T22:51:49.117Z,12.40
2022-11-21T22:54:17.772Z,9.23
2022-11-21T22:56:46.211Z,15.70
2022-11-21T22:59:15.218Z,16.90
2022-11-21T23:01:45.497Z,12.90
2022-11-21T23:04:17.683Z,10.73
2022-11-21T23:06:46.562Z,16.52
2022-11-21T23:09:15.289Z,34.38
2022-11-21T23:11:44.141Z,16.98
2022-11-21T23:14:12.684Z,13.45
2022-11-21T23:16:41.162Z,15.50
2022-11-21T23:19:11.678Z,14.73
2022-11-21T23:21:40.350Z,14.38
2022-11-21T23:24:09.283Z,11.95
2022-11-21T23:26:38.200Z,12.82
2022-11-21T23:29:09.120Z,16.88
2022-11-21T23:31:38.383Z,16.35
2022-11-21T23:34:06.950Z,12.82
2022-11-21T23:36:36.937Z,10.40
2022-11-21T23:39:06.100Z,12.23
2022-11-21T23:41:34.770Z,9.23
2022-11-21T23:44:03.480Z,13.05
2022-11-21T23:46:32.138Z,13.15
2022-11-21T23:49:00.776Z,13.27
2022-11-21T23:51:29.271Z,15.75
2022-11-21T23:53:59.544Z,13.80
2022-11-21T23:56:28.152Z,11.88
2022-11-21T23:58:56.713Z,17.00
